sensor_id;sensor_type;location;lat;lon;timestamp;P1;durP1;ratioP1;P2;durP2;ratioP2
78893;SDS011;68282;42.698;23.350;2023-12-28T00:00:46;32.17;;;17.35;;
78893;SDS011;68282;42.698;23.350;2023-12-28T00:03:17;29.35;;;17.35;;
78893;SDS011;68282;42.698;23.350;2023-12-28T00:05:42;30.52;;;17.38;;
78893;SDS011;68282;42.698;23.350;2023-12-28T00:08:08;30.38;;;18.10;;
78893;SDS011;68282;42.698;23.350;2023-12-28T00:10:33;31.45;;;17.85;;
78893;SDS011;68282;42.698;23.350;2023-12-28T00:12:59;38.10;;;17.15;;
78893;SDS011;68282;42.698;23.350;2023-12-28T00:15:24;33.80;;;15.95;;
78893;SDS011;68282;42.698;23.350;2023-12-28T00:17:51;30.90;;;17.25;;
78893;SDS011;68282;42.698;23.350;2023-12-28T00:20:17;36.17;;;19.13;;
78893;SDS011;68282;42.698;23.350;2023-12-28T00:22:42;41.38;;;19.30;;
78893;SDS011;68282;42.698;23.350;2023-12-28T00:25:08;31.38;;;17.15;;
78893;SDS011;68282;42.698;23.350;2023-12-28T00:27:33;28.65;;;17.08;;
78893;SDS011;68282;42.698;23.350;2023-12-28T00:30:00;32.85;;;17.27;;
78893;SDS011;68282;42.698;23.350;2023-12-28T00:32:26;38.85;;;20.30;;
78893;SDS011;68282;42.698;23.350;2023-12-28T00:34:51;36.30;;;18.95;;
78893;SDS011;68282;42.698;23.350;2023-12-28T00:37:17;38.08;;;20.65;;
78893;SDS011;68282;42.698;23.350;2023-12-28T00:39:42;33.60;;;21.42;;
78893;SDS011;68282;42.698;23.350;2023-12-28T00:42:09;44.30;;;25.83;;
78893;SDS011;68282;42.698;23.350;2023-12-28T00:44:35;46.95;;;25.00;;
78893;SDS011;68282;42.698;23.350;2023-12-28T00:47:00;46.65;;;27.00;;
78893;SDS011;68282;42.698;23.350;2023-12-28T00:49:26;44.90;;;23.63;;
78893;SDS011;68282;42.698;23.350;2023-12-28T00:51:51;41.78;;;25.00;;
78893;SDS011;68282;42.698;23.350;2023-12-28T00:54:17;51.25;;;26.63;;
78893;SDS011;68282;42.698;23.350;2023-12-28T00:56:42;55.97;;;25.88;;
78893;SDS011;68282;42.698;23.350;2023-12-28T00:59:08;44.75;;;25.42;;
78893;SDS011;68282;42.698;23.350;2023-12-28T01:01:33;51.42;;;26.40;;
78893;SDS011;68282;42.698;23.350;2023-12-28T01:03:58;44.38;;;23.35;;
78893;SDS011;68282;42.698;23.350;2023-12-28T01:06:24;47.20;;;24.33;;
78893;SDS011;68282;42.698;23.350;2023-12-28T01:08:56;43.92;;;23.63;;
78893;SDS011;68282;42.698;23.350;2023-12-28T01:11:22;49.55;;;23.88;;
78893;SDS011;68282;42.698;23.350;2023-12-28T01:13:47;47.17;;;24.50;;
78893;SDS011;68282;42.698;23.350;2023-12-28T01:16:13;48.95;;;23.23;;
78893;SDS011;68282;42.698;23.350;2023-12-28T01:18:39;46.47;;;23.65;;
78893;SDS011;68282;42.698;23.350;2023-12-28T01:21:05;60.63;;;31.17;;
78893;SDS011;68282;42.698;23.350;2023-12-28T01:23:31;70.72;;;34.85;;
78893;SDS011;68282;42.698;23.350;2023-12-28T01:25:56;66.57;;;33.63;;
78893;SDS011;68282;42.698;23.350;2023-12-28T01:28:22;55.58;;;29.48;;
78893;SDS011;68282;42.698;23.350;2023-12-28T01:30:49;63.45;;;29.00;;
78893;SDS011;68282;42.698;23.350;2023-12-28T01:33:14;58.63;;;31.40;;
78893;SDS011;68282;42.698;23.350;2023-12-28T01:35:41;60.13;;;30.42;;
78893;SDS011;68282;42.698;23.350;2023-12-28T01:38:07;61.63;;;30.40;;
78893;SDS011;68282;42.698;23.350;2023-12-28T01:40:32;59.10;;;28.27;;
78893;SDS011;68282;42.698;23.350;2023-12-28T01:42:58;68.75;;;31.38;;
78893;SDS011;68282;42.698;23.350;2023-12-28T01:45:23;53.85;;;27.98;;
78893;SDS011;68282;42.698;23.350;2023-12-28T01:47:49;59.30;;;29.05;;
78893;SDS011;68282;42.698;23.350;2023-12-28T01:50:16;45.50;;;25.63;;
78893;SDS011;68282;42.698;23.350;2023-12-28T01:52:43;55.95;;;26.67;;
78893;SDS011;68282;42.698;23.350;2023-12-28T01:55:09;47.58;;;27.33;;
78893;SDS011;68282;42.698;23.350;2023-12-28T01:57:35;53.65;;;24.90;;
78893;SDS011;68282;42.698;23.350;2023-12-28T02:00:01;44.65;;;23.88;;
78893;SDS011;68282;42.698;23.350;2023-12-28T02:02:28;47.90;;;23.23;;
78893;SDS011;68282;42.698;23.350;2023-12-28T02:04:55;45.75;;;22.42;;
78893;SDS011;68282;42.698;23.350;2023-12-28T02:07:21;43.45;;;22.73;;
78893;SDS011;68282;42.698;23.350;2023-12-28T02:09:48;43.67;;;21.95;;
78893;SDS011;68282;42.698;23.350;2023-12-28T02:12:13;49.15;;;23.40;;
78893;SDS011;68282;42.698;23.350;2023-12-28T02:14:39;41.92;;;21.60;;
78893;SDS011;68282;42.698;23.350;2023-12-28T02:17:10;43.95;;;22.40;;
78893;SDS011;68282;42.698;23.350;2023-12-28T02:19:50;41.05;;;19.38;;
78893;SDS011;68282;42.698;23.350;2023-12-28T02:22:16;32.40;;;18.80;;
78893;SDS011;68282;42.698;23.350;2023-12-28T02:27:31;32.80;;;18.80;;
78893;SDS011;68282;42.698;23.350;2023-12-28T02:29:58;33.65;;;18.40;;
78893;SDS011;68282;42.698;23.350;2023-12-28T02:35:17;35.67;;;17.15;;
78893;SDS011;68282;42.698;23.350;2023-12-28T02:37:48;33.67;;;17.55;;
78893;SDS011;68282;42.698;23.350;2023-12-28T02:40:20;30.65;;;15.77;;
78893;SDS011;68282;42.698;23.350;2023-12-28T02:42:47;34.72;;;17.80;;
78893;SDS011;68282;42.698;23.350;2023-12-28T02:45:13;30.52;;;15.82;;
78893;SDS011;68282;42.698;23.350;2023-12-28T02:47:38;31.65;;;16.27;;
78893;SDS011;68282;42.698;23.350;2023-12-28T02:50:04;30.75;;;18.83;;
78893;SDS011;68282;42.698;23.350;2023-12-28T02:52:30;35.85;;;17.45;;
78893;SDS011;68282;42.698;23.350;2023-12-28T02:54:56;33.78;;;17.73;;
78893;SDS011;68282;42.698;23.350;2023-12-28T02:57:21;34.65;;;18.77;;
78893;SDS011;68282;42.698;23.350;2023-12-28T02:59:47;34.75;;;20.30;;
78893;SDS011;68282;42.698;23.350;2023-12-28T03:02:12;38.75;;;21.58;;
78893;SDS011;68282;42.698;23.350;2023-12-28T03:04:38;36.10;;;21.23;;
78893;SDS011;68282;42.698;23.350;2023-12-28T03:07:04;36.10;;;19.77;;
78893;SDS011;68282;42.698;23.350;2023-12-28T03:09:30;31.77;;;18.33;;
78893;SDS011;68282;42.698;23.350;2023-12-28T03:11:55;34.38;;;18.60;;
78893;SDS011;68282;42.698;23.350;2023-12-28T03:14:21;30.75;;;17.60;;
78893;SDS011;68282;42.698;23.350;2023-12-28T03:16:47;28.80;;;15.02;;
78893;SDS011;68282;42.698;23.350;2023-12-28T03:19:12;27.13;;;15.02;;
78893;SDS011;68282;42.698;23.350;2023-12-28T03:21:38;23.45;;;14.18;;
78893;SDS011;68282;42.698;23.350;2023-12-28T03:24:05;25.25;;;13.93;;
78893;SDS011;68282;42.698;23.350;2023-12-28T03:26:30;27.80;;;13.50;;
78893;SDS011;68282;42.698;23.350;2023-12-28T03:28:56;27.95;;;14.60;;
78893;SDS011;68282;42.698;23.350;2023-12-28T03:31:22;35.60;;;16.95;;
78893;SDS011;68282;42.698;23.350;2023-12-28T03:33:48;28.10;;;17.60;;
78893;SDS011;68282;42.698;23.350;2023-12-28T03:36:20;35.95;;;19.27;;
78893;SDS011;68282;42.698;23.350;2023-12-28T03:38:46;31.75;;;18.88;;
78893;SDS011;68282;42.698;23.350;2023-12-28T03:41:18;26.27;;;18.38;;
78893;SDS011;68282;42.698;23.350;2023-12-28T03:43:44;33.75;;;18.55;;
78893;SDS011;68282;42.698;23.350;2023-12-28T03:46:10;28.95;;;17.20;;
78893;SDS011;68282;42.698;23.350;2023-12-28T03:48:36;38.70;;;23.83;;
78893;SDS011;68282;42.698;23.350;2023-12-28T03:51:02;37.55;;;22.55;;
78893;SDS011;68282;42.698;23.350;2023-12-28T03:53:29;45.05;;;24.83;;
78893;SDS011;68282;42.698;23.350;2023-12-28T03:55:56;39.78;;;27.27;;
78893;SDS011;68282;42.698;23.350;2023-12-28T03:58:23;49.17;;;27.90;;
78893;SDS011;68282;42.698;23.350;2023-12-28T04:00:48;48.92;;;29.70;;
78893;SDS011;68282;42.698;23.350;2023-12-28T04:03:14;46.63;;;28.23;;
78893;SDS011;68282;42.698;23.350;2023-12-28T04:05:39;44.83;;;28.35;;
78893;SDS011;68282;42.698;23.350;2023-12-28T04:08:05;46.17;;;25.35;;
78893;SDS011;68282;42.698;23.350;2023-12-28T04:10:32;39.33;;;21.00;;
78893;SDS011;68282;42.698;23.350;2023-12-28T04:12:58;35.72;;;21.88;;
78893;SDS011;68282;42.698;23.350;2023-12-28T04:15:25;32.15;;;20.13;;
78893;SDS011;68282;42.698;23.350;2023-12-28T04:17:51;35.13;;;20.20;;
78893;SDS011;68282;42.698;23.350;2023-12-28T04:20:17;34.47;;;21.05;;
78893;SDS011;68282;42.698;23.350;2023-12-28T04:22:42;33.85;;;20.77;;
78893;SDS011;68282;42.698;23.350;2023-12-28T04:25:08;28.23;;;18.60;;
78893;SDS011;68282;42.698;23.350;2023-12-28T04:27:34;32.10;;;17.05;;
78893;SDS011;68282;42.698;23.350;2023-12-28T04:30:01;27.45;;;15.65;;
78893;SDS011;68282;42.698;23.350;2023-12-28T04:32:27;23.88;;;15.80;;
78893;SDS011;68282;42.698;23.350;2023-12-28T04:34:52;33.38;;;15.85;;
78893;SDS011;68282;42.698;23.350;2023-12-28T04:37:19;32.05;;;15.73;;
78893;SDS011;68282;42.698;23.350;2023-12-28T04:39:45;27.83;;;14.50;;
78893;SDS011;68282;42.698;23.350;2023-12-28T04:42:10;24.48;;;15.40;;
78893;SDS011;68282;42.698;23.350;2023-12-28T04:44:39;25.67;;;13.73;;
78893;SDS011;68282;42.698;23.350;2023-12-28T04:47:05;27.17;;;13.68;;
78893;SDS011;68282;42.698;23.350;2023-12-28T04:49:31;26.42;;;13.52;;
78893;SDS011;68282;42.698;23.350;2023-12-28T04:51:57;21.30;;;12.43;;
78893;SDS011;68282;42.698;23.350;2023-12-28T04:54:23;27.90;;;14.30;;
78893;SDS011;68282;42.698;23.350;2023-12-28T04:56:48;28.63;;;14.80;;
78893;SDS011;68282;42.698;23.350;2023-12-28T04:59:14;28.52;;;16.15;;
78893;SDS011;68282;42.698;23.350;2023-12-28T05:01:40;22.05;;;13.90;;
78893;SDS011;68282;42.698;23.350;2023-12-28T05:04:06;30.33;;;15.65;;
78893;SDS011;68282;42.698;23.350;2023-12-28T05:06:32;28.63;;;15.93;;
78893;SDS011;68282;42.698;23.350;2023-12-28T05:08:57;33.88;;;18.05;;
78893;SDS011;68282;42.698;23.350;2023-12-28T05:11:23;36.35;;;19.33;;
78893;SDS011;68282;42.698;23.350;2023-12-28T05:13:48;36.28;;;19.35;;
78893;SDS011;68282;42.698;23.350;2023-12-28T05:16:14;33.42;;;16.98;;
78893;SDS011;68282;42.698;23.350;2023-12-28T05:18:39;30.55;;;16.20;;
78893;SDS011;68282;42.698;23.350;2023-12-28T05:21:05;30.13;;;15.27;;
78893;SDS011;68282;42.698;23.350;2023-12-28T05:23:30;33.53;;;16.17;;
78893;SDS011;68282;42.698;23.350;2023-12-28T05:25:56;25.02;;;15.38;;
78893;SDS011;68282;42.698;23.350;2023-12-28T05:28:21;27.80;;;15.65;;
78893;SDS011;68282;42.698;23.350;2023-12-28T05:30:47;36.20;;;18.52;;
78893;SDS011;68282;42.698;23.350;2023-12-28T05:33:12;30.80;;;16.25;;
78893;SDS011;68282;42.698;23.350;2023-12-28T05:35:38;33.47;;;17.88;;
78893;SDS011;68282;42.698;23.350;2023-12-28T05:38:03;28.48;;;15.38;;
78893;SDS011;68282;42.698;23.350;2023-12-28T05:40:29;28.00;;;14.32;;
78893;SDS011;68282;42.698;23.350;2023-12-28T05:42:55;29.85;;;17.48;;
78893;SDS011;68282;42.698;23.350;2023-12-28T05:45:21;25.10;;;15.55;;
78893;SDS011;68282;42.698;23.350;2023-12-28T05:47:46;27.15;;;16.05;;
78893;SDS011;68282;42.698;23.350;2023-12-28T05:50:12;24.55;;;14.20;;
78893;SDS011;68282;42.698;23.350;2023-12-28T05:52:37;27.13;;;16.08;;
78893;SDS011;68282;42.698;23.350;2023-12-28T05:55:04;27.98;;;15.10;;
78893;SDS011;68282;42.698;23.350;2023-12-28T05:57:30;31.75;;;15.77;;
78893;SDS011;68282;42.698;23.350;2023-12-28T05:59:56;23.90;;;14.85;;
78893;SDS011;68282;42.698;23.350;2023-12-28T06:02:22;29.77;;;16.58;;
78893;SDS011;68282;42.698;23.350;2023-12-28T06:04:48;28.30;;;15.50;;
78893;SDS011;68282;42.698;23.350;2023-12-28T06:07:13;30.17;;;17.45;;
78893;SDS011;68282;42.698;23.350;2023-12-28T06:09:39;27.10;;;16.60;;
78893;SDS011;68282;42.698;23.350;2023-12-28T06:12:05;35.17;;;18.05;;
78893;SDS011;68282;42.698;23.350;2023-12-28T06:14:31;33.70;;;17.63;;
78893;SDS011;68282;42.698;23.350;2023-12-28T06:17:00;32.97;;;18.77;;
78893;SDS011;68282;42.698;23.350;2023-12-28T06:19:26;41.30;;;21.75;;
78893;SDS011;68282;42.698;23.350;2023-12-28T06:21:51;44.65;;;24.35;;
78893;SDS011;68282;42.698;23.350;2023-12-28T06:24:19;31.42;;;18.25;;
78893;SDS011;68282;42.698;23.350;2023-12-28T06:26:44;31.90;;;17.70;;
78893;SDS011;68282;42.698;23.350;2023-12-28T06:29:10;40.58;;;17.92;;
78893;SDS011;68282;42.698;23.350;2023-12-28T06:31:36;37.08;;;17.65;;
78893;SDS011;68282;42.698;23.350;2023-12-28T06:34:02;45.25;;;20.33;;
78893;SDS011;68282;42.698;23.350;2023-12-28T06:36:28;53.67;;;27.55;;
78893;SDS011;68282;42.698;23.350;2023-12-28T06:38:55;44.28;;;25.63;;
78893;SDS011;68282;42.698;23.350;2023-12-28T06:41:21;42.13;;;25.77;;
78893;SDS011;68282;42.698;23.350;2023-12-28T06:43:46;36.75;;;21.83;;
78893;SDS011;68282;42.698;23.350;2023-12-28T06:46:12;43.05;;;23.30;;
78893;SDS011;68282;42.698;23.350;2023-12-28T06:48:37;38.53;;;24.33;;
78893;SDS011;68282;42.698;23.350;2023-12-28T06:51:05;33.10;;;21.67;;
78893;SDS011;68282;42.698;23.350;2023-12-28T06:53:31;29.73;;;18.80;;
78893;SDS011;68282;42.698;23.350;2023-12-28T06:55:57;39.80;;;21.63;;
78893;SDS011;68282;42.698;23.350;2023-12-28T06:58:22;31.15;;;19.55;;
78893;SDS011;68282;42.698;23.350;2023-12-28T07:00:48;67.32;;;32.97;;
78893;SDS011;68282;42.698;23.350;2023-12-28T07:03:13;44.13;;;25.98;;
78893;SDS011;68282;42.698;23.350;2023-12-28T07:05:39;44.60;;;22.17;;
78893;SDS011;68282;42.698;23.350;2023-12-28T07:08:05;34.03;;;20.63;;
78893;SDS011;68282;42.698;23.350;2023-12-28T07:10:30;38.70;;;21.88;;
78893;SDS011;68282;42.698;23.350;2023-12-28T07:12:56;37.20;;;20.63;;
78893;SDS011;68282;42.698;23.350;2023-12-28T07:15:21;37.95;;;21.25;;
78893;SDS011;68282;42.698;23.350;2023-12-28T07:17:47;33.75;;;20.75;;
78893;SDS011;68282;42.698;23.350;2023-12-28T07:20:12;36.60;;;21.58;;
78893;SDS011;68282;42.698;23.350;2023-12-28T07:22:38;47.40;;;27.25;;
78893;SDS011;68282;42.698;23.350;2023-12-28T07:25:07;49.70;;;25.40;;
78893;SDS011;68282;42.698;23.350;2023-12-28T07:27:35;47.30;;;28.77;;
78893;SDS011;68282;42.698;23.350;2023-12-28T07:30:02;41.72;;;26.33;;
78893;SDS011;68282;42.698;23.350;2023-12-28T07:32:30;42.70;;;25.90;;
78893;SDS011;68282;42.698;23.350;2023-12-28T07:34:56;44.08;;;26.08;;
78893;SDS011;68282;42.698;23.350;2023-12-28T07:37:21;48.28;;;23.70;;
78893;SDS011;68282;42.698;23.350;2023-12-28T07:39:47;32.08;;;18.83;;
78893;SDS011;68282;42.698;23.350;2023-12-28T07:42:12;29.20;;;16.95;;
78893;SDS011;68282;42.698;23.350;2023-12-28T07:44:38;33.85;;;16.77;;
78893;SDS011;68282;42.698;23.350;2023-12-28T07:47:04;30.40;;;19.55;;
78893;SDS011;68282;42.698;23.350;2023-12-28T07:49:30;32.17;;;19.52;;
78893;SDS011;68282;42.698;23.350;2023-12-28T07:51:56;44.92;;;24.48;;
78893;SDS011;68282;42.698;23.350;2023-12-28T07:54:22;38.28;;;20.70;;
78893;SDS011;68282;42.698;23.350;2023-12-28T07:56:48;36.80;;;20.80;;
78893;SDS011;68282;42.698;23.350;2023-12-28T07:59:13;36.58;;;21.02;;
78893;SDS011;68282;42.698;23.350;2023-12-28T08:01:39;41.15;;;21.67;;
78893;SDS011;68282;42.698;23.350;2023-12-28T08:04:04;40.20;;;20.35;;
78893;SDS011;68282;42.698;23.350;2023-12-28T08:06:30;39.05;;;21.00;;
78893;SDS011;68282;42.698;23.350;2023-12-28T08:08:59;36.65;;;20.45;;
78893;SDS011;68282;42.698;23.350;2023-12-28T08:11:26;34.67;;;20.95;;
78893;SDS011;68282;42.698;23.350;2023-12-28T08:13:52;38.03;;;21.13;;
78893;SDS011;68282;42.698;23.350;2023-12-28T08:16:17;34.55;;;19.67;;
78893;SDS011;68282;42.698;23.350;2023-12-28T08:18:45;39.58;;;21.67;;
78893;SDS011;68282;42.698;23.350;2023-12-28T08:21:10;32.10;;;20.25;;
78893;SDS011;68282;42.698;23.350;2023-12-28T08:23:36;36.53;;;20.25;;
78893;SDS011;68282;42.698;23.350;2023-12-28T08:26:01;33.92;;;17.67;;
78893;SDS011;68282;42.698;23.350;2023-12-28T08:28:27;35.15;;;19.52;;
78893;SDS011;68282;42.698;23.350;2023-12-28T08:30:53;33.50;;;18.98;;
78893;SDS011;68282;42.698;23.350;2023-12-28T08:33:21;33.78;;;19.40;;
78893;SDS011;68282;42.698;23.350;2023-12-28T08:35:47;35.58;;;19.63;;
78893;SDS011;68282;42.698;23.350;2023-12-28T08:38:12;33.00;;;20.13;;
78893;SDS011;68282;42.698;23.350;2023-12-28T08:40:38;43.22;;;23.52;;
78893;SDS011;68282;42.698;23.350;2023-12-28T08:43:03;38.35;;;22.27;;
78893;SDS011;68282;42.698;23.350;2023-12-28T08:45:29;41.03;;;23.20;;
78893;SDS011;68282;42.698;23.350;2023-12-28T08:47:55;41.05;;;20.98;;
78893;SDS011;68282;42.698;23.350;2023-12-28T08:50:21;38.35;;;22.10;;
78893;SDS011;68282;42.698;23.350;2023-12-28T08:52:47;39.83;;;21.27;;
78893;SDS011;68282;42.698;23.350;2023-12-28T08:55:13;36.55;;;19.05;;
78893;SDS011;68282;42.698;23.350;2023-12-28T08:57:39;32.47;;;21.63;;
78893;SDS011;68282;42.698;23.350;2023-12-28T09:00:05;33.85;;;19.55;;
78893;SDS011;68282;42.698;23.350;2023-12-28T09:02:31;40.40;;;20.33;;
78893;SDS011;68282;42.698;23.350;2023-12-28T09:05:00;38.35;;;21.23;;
78893;SDS011;68282;42.698;23.350;2023-12-28T09:09:52;32.22;;;19.30;;
78893;SDS011;68282;42.698;23.350;2023-12-28T09:12:17;34.80;;;21.13;;
78893;SDS011;68282;42.698;23.350;2023-12-28T09:14:43;35.83;;;19.85;;
78893;SDS011;68282;42.698;23.350;2023-12-28T09:17:08;33.35;;;19.08;;
78893;SDS011;68282;42.698;23.350;2023-12-28T09:19:35;31.50;;;17.67;;
78893;SDS011;68282;42.698;23.350;2023-12-28T09:22:00;29.52;;;16.60;;
78893;SDS011;68282;42.698;23.350;2023-12-28T09:24:26;32.20;;;17.35;;
78893;SDS011;68282;42.698;23.350;2023-12-28T09:26:51;27.10;;;17.70;;
78893;SDS011;68282;42.698;23.350;2023-12-28T09:29:18;24.92;;;16.05;;
78893;SDS011;68282;42.698;23.350;2023-12-28T09:31:45;29.13;;;16.08;;
78893;SDS011;68282;42.698;23.350;2023-12-28T09:34:11;28.00;;;16.30;;
78893;SDS011;68282;42.698;23.350;2023-12-28T09:36:36;25.23;;;17.00;;
78893;SDS011;68282;42.698;23.350;2023-12-28T09:39:03;25.33;;;15.73;;
78893;SDS011;68282;42.698;23.350;2023-12-28T09:41:30;28.10;;;16.83;;
78893;SDS011;68282;42.698;23.350;2023-12-28T09:44:09;27.33;;;15.85;;
78893;SDS011;68282;42.698;23.350;2023-12-28T09:46:37;24.90;;;15.35;;
78893;SDS011;68282;42.698;23.350;2023-12-28T09:49:06;31.85;;;16.08;;
78893;SDS011;68282;42.698;23.350;2023-12-28T09:51:32;27.00;;;15.88;;
78893;SDS011;68282;42.698;23.350;2023-12-28T09:53:57;29.65;;;16.77;;
78893;SDS011;68282;42.698;23.350;2023-12-28T09:56:23;30.40;;;18.27;;
78893;SDS011;68282;42.698;23.350;2023-12-28T09:58:50;27.25;;;15.00;;
78893;SDS011;68282;42.698;23.350;2023-12-28T10:01:17;29.70;;;16.02;;
78893;SDS011;68282;42.698;23.350;2023-12-28T10:03:43;29.63;;;15.43;;
78893;SDS011;68282;42.698;23.350;2023-12-28T10:06:09;30.63;;;17.33;;
78893;SDS011;68282;42.698;23.350;2023-12-28T10:08:35;31.58;;;16.80;;
78893;SDS011;68282;42.698;23.350;2023-12-28T10:11:01;34.33;;;18.38;;
78893;SDS011;68282;42.698;23.350;2023-12-28T10:13:28;29.55;;;17.17;;
78893;SDS011;68282;42.698;23.350;2023-12-28T10:15:58;23.88;;;15.85;;
78893;SDS011;68282;42.698;23.350;2023-12-28T10:18:24;26.52;;;15.20;;
78893;SDS011;68282;42.698;23.350;2023-12-28T10:20:50;27.23;;;16.30;;
78893;SDS011;68282;42.698;23.350;2023-12-28T10:23:19;29.25;;;17.33;;
78893;SDS011;68282;42.698;23.350;2023-12-28T10:25:46;27.80;;;17.55;;
78893;SDS011;68282;42.698;23.350;2023-12-28T10:28:13;28.95;;;16.45;;
78893;SDS011;68282;42.698;23.350;2023-12-28T10:30:40;28.65;;;16.63;;
78893;SDS011;68282;42.698;23.350;2023-12-28T10:33:06;34.67;;;17.10;;
78893;SDS011;68282;42.698;23.350;2023-12-28T10:35:32;31.73;;;17.33;;
78893;SDS011;68282;42.698;23.350;2023-12-28T10:37:59;27.42;;;17.50;;
78893;SDS011;68282;42.698;23.350;2023-12-28T10:40:28;35.17;;;18.08;;
78893;SDS011;68282;42.698;23.350;2023-12-28T10:42:59;29.88;;;17.15;;
78893;SDS011;68282;42.698;23.350;2023-12-28T10:45:32;31.35;;;18.13;;
78893;SDS011;68282;42.698;23.350;2023-12-28T10:48:05;32.10;;;19.08;;
78893;SDS011;68282;42.698;23.350;2023-12-28T10:50:40;28.02;;;16.95;;
78893;SDS011;68282;42.698;23.350;2023-12-28T10:53:11;33.55;;;17.67;;
78893;SDS011;68282;42.698;23.350;2023-12-28T10:56:00;31.02;;;17.33;;
78893;SDS011;68282;42.698;23.350;2023-12-28T11:01:24;28.17;;;16.13;;
78893;SDS011;68282;42.698;23.350;2023-12-28T11:04:02;27.50;;;16.88;;
78893;SDS011;68282;42.698;23.350;2023-12-28T11:06:33;28.90;;;16.83;;
78893;SDS011;68282;42.698;23.350;2023-12-28T11:09:01;28.73;;;16.98;;
78893;SDS011;68282;42.698;23.350;2023-12-28T11:11:28;29.27;;;17.45;;
78893;SDS011;68282;42.698;23.350;2023-12-28T11:13:55;28.98;;;17.05;;
78893;SDS011;68282;42.698;23.350;2023-12-28T11:16:24;28.05;;;16.67;;
78893;SDS011;68282;42.698;23.350;2023-12-28T11:18:51;24.52;;;16.63;;
78893;SDS011;68282;42.698;23.350;2023-12-28T11:21:17;32.70;;;17.02;;
78893;SDS011;68282;42.698;23.350;2023-12-28T11:23:45;30.50;;;17.73;;
78893;SDS011;68282;42.698;23.350;2023-12-28T11:26:18;28.83;;;16.75;;
78893;SDS011;68282;42.698;23.350;2023-12-28T11:28:45;28.17;;;16.33;;
78893;SDS011;68282;42.698;23.350;2023-12-28T11:31:14;30.63;;;16.80;;
78893;SDS011;68282;42.698;23.350;2023-12-28T11:33:47;25.80;;;15.80;;
78893;SDS011;68282;42.698;23.350;2023-12-28T11:36:26;26.17;;;15.57;;
78893;SDS011;68282;42.698;23.350;2023-12-28T11:39:03;27.48;;;15.73;;
78893;SDS011;68282;42.698;23.350;2023-12-28T11:41:31;31.33;;;16.38;;
78893;SDS011;68282;42.698;23.350;2023-12-28T11:44:04;21.63;;;14.27;;
78893;SDS011;68282;42.698;23.350;2023-12-28T11:46:31;25.67;;;15.77;;
78893;SDS011;68282;42.698;23.350;2023-12-28T11:49:04;25.98;;;15.43;;
78893;SDS011;68282;42.698;23.350;2023-12-28T11:51:33;30.52;;;15.93;;
78893;SDS011;68282;42.698;23.350;2023-12-28T11:54:02;32.72;;;16.65;;
78893;SDS011;68282;42.698;23.350;2023-12-28T11:56:29;27.08;;;16.77;;
78893;SDS011;68282;42.698;23.350;2023-12-28T11:58:59;24.92;;;15.60;;
78893;SDS011;68282;42.698;23.350;2023-12-28T12:01:24;32.72;;;16.58;;
78893;SDS011;68282;42.698;23.350;2023-12-28T12:03:50;26.88;;;15.75;;
78893;SDS011;68282;42.698;23.350;2023-12-28T12:06:16;28.50;;;15.32;;
78893;SDS011;68282;42.698;23.350;2023-12-28T12:08:48;25.90;;;15.18;;
78893;SDS011;68282;42.698;23.350;2023-12-28T12:11:16;28.35;;;16.77;;
78893;SDS011;68282;42.698;23.350;2023-12-28T12:13:42;26.48;;;16.23;;
78893;SDS011;68282;42.698;23.350;2023-12-28T12:16:08;28.65;;;15.50;;
78893;SDS011;68282;42.698;23.350;2023-12-28T12:18:34;27.98;;;15.20;;
78893;SDS011;68282;42.698;23.350;2023-12-28T12:21:00;32.15;;;15.00;;
78893;SDS011;68282;42.698;23.350;2023-12-28T12:23:26;28.33;;;15.77;;
78893;SDS011;68282;42.698;23.350;2023-12-28T12:25:52;27.08;;;16.48;;
78893;SDS011;68282;42.698;23.350;2023-12-28T12:28:17;28.15;;;14.55;;
78893;SDS011;68282;42.698;23.350;2023-12-28T12:30:51;24.15;;;14.52;;
78893;SDS011;68282;42.698;23.350;2023-12-28T12:33:21;23.05;;;14.20;;
78893;SDS011;68282;42.698;23.350;2023-12-28T12:35:47;27.52;;;14.63;;
78893;SDS011;68282;42.698;23.350;2023-12-28T12:38:12;24.40;;;14.80;;
78893;SDS011;68282;42.698;23.350;2023-12-28T12:40:38;25.85;;;14.55;;
78893;SDS011;68282;42.698;23.350;2023-12-28T12:43:05;21.17;;;13.45;;
78893;SDS011;68282;42.698;23.350;2023-12-28T12:45:34;23.60;;;13.07;;
78893;SDS011;68282;42.698;23.350;2023-12-28T12:48:01;22.35;;;13.52;;
78893;SDS011;68282;42.698;23.350;2023-12-28T12:50:28;23.70;;;13.82;;
78893;SDS011;68282;42.698;23.350;2023-12-28T12:52:53;32.33;;;14.18;;
78893;SDS011;68282;42.698;23.350;2023-12-28T12:55:19;24.55;;;15.15;;
78893;SDS011;68282;42.698;23.350;2023-12-28T12:57:44;25.60;;;13.75;;
78893;SDS011;68282;42.698;23.350;2023-12-28T13:00:10;21.42;;;12.05;;
78893;SDS011;68282;42.698;23.350;2023-12-28T13:02:36;20.05;;;13.23;;
78893;SDS011;68282;42.698;23.350;2023-12-28T13:05:02;17.75;;;9.40;;
78893;SDS011;68282;42.698;23.350;2023-12-28T13:07:30;17.13;;;10.57;;
78893;SDS011;68282;42.698;23.350;2023-12-28T13:09:57;19.95;;;11.40;;
78893;SDS011;68282;42.698;23.350;2023-12-28T13:12:22;23.65;;;11.88;;
78893;SDS011;68282;42.698;23.350;2023-12-28T13:14:49;19.80;;;12.60;;
78893;SDS011;68282;42.698;23.350;2023-12-28T13:17:14;26.23;;;11.75;;
78893;SDS011;68282;42.698;23.350;2023-12-28T13:19:41;19.75;;;11.77;;
78893;SDS011;68282;42.698;23.350;2023-12-28T13:22:07;19.40;;;11.25;;
78893;SDS011;68282;42.698;23.350;2023-12-28T13:24:32;20.73;;;13.32;;
78893;SDS011;68282;42.698;23.350;2023-12-28T13:26:58;23.02;;;11.20;;
78893;SDS011;68282;42.698;23.350;2023-12-28T13:29:23;17.73;;;11.52;;
78893;SDS011;68282;42.698;23.350;2023-12-28T13:31:49;25.42;;;13.07;;
78893;SDS011;68282;42.698;23.350;2023-12-28T13:34:18;22.38;;;12.07;;
78893;SDS011;68282;42.698;23.350;2023-12-28T13:36:44;22.42;;;11.52;;
78893;SDS011;68282;42.698;23.350;2023-12-28T13:39:10;23.27;;;12.88;;
78893;SDS011;68282;42.698;23.350;2023-12-28T13:41:39;23.98;;;12.05;;
78893;SDS011;68282;42.698;23.350;2023-12-28T13:44:05;19.27;;;10.82;;
78893;SDS011;68282;42.698;23.350;2023-12-28T13:46:35;18.48;;;11.60;;
78893;SDS011;68282;42.698;23.350;2023-12-28T13:49:01;17.13;;;10.15;;
78893;SDS011;68282;42.698;23.350;2023-12-28T13:51:29;22.63;;;11.75;;
78893;SDS011;68282;42.698;23.350;2023-12-28T13:53:54;21.55;;;11.60;;
78893;SDS011;68282;42.698;23.350;2023-12-28T13:56:20;19.35;;;10.93;;
78893;SDS011;68282;42.698;23.350;2023-12-28T13:58:46;23.08;;;12.70;;
78893;SDS011;68282;42.698;23.350;2023-12-28T14:01:11;19.52;;;12.50;;
78893;SDS011;68282;42.698;23.350;2023-12-28T14:03:37;28.00;;;12.93;;
78893;SDS011;68282;42.698;23.350;2023-12-28T14:06:02;23.15;;;13.07;;
78893;SDS011;68282;42.698;23.350;2023-12-28T14:08:28;21.67;;;13.07;;
78893;SDS011;68282;42.698;23.350;2023-12-28T14:10:55;19.90;;;12.40;;
78893;SDS011;68282;42.698;23.350;2023-12-28T14:13:20;19.58;;;11.85;;
78893;SDS011;68282;42.698;23.350;2023-12-28T14:15:46;19.90;;;12.73;;